KIKK/IKK METAR and TAF weather

Enter ICAO airport designator
Station Type Date Time Source
KIKK METAR 2021/05/17 22:55 UTC NOAA

KIKK 172255Z AUTO 10011KT 10SM SCT018 SCT024 BKN090 17/16 A3016 RMK AO2 T01730162


Station Type Date Time Source
KIKK Decoded METAR 2021/05/17 22:55 UTC NOAA

Kankakee, Greater Kankakee Airport, IL, United States (KIKK) 41-04-17N 087-50-47W
May 17, 2021 - 06:55 PM EDT / 2021.05.17 2255 UTC
Wind: from the E (100 degrees) at 13 MPH (11 KT):0
Visibility: 10 mile(s):0
Sky conditions: mostly cloudy
Temperature: 63.1 F (17.3 C)
Dew Point: 61.2 F (16.2 C)
Relative Humidity: 93%
Pressure (altimeter): 30.16 in. Hg (1021 hPa)
ob: KIKK 172255Z AUTO 10011KT 10SM SCT018 SCT024 BKN090 17/16 A3016 RMK AO2 T01730162
cycle: 23

Station Type Date Time Source
KIKK TAF UTC NOAA

Error!

Example: see airport list